sensor_id;sensor_type;location;lat;lon;timestamp;pressure;altitude;pressure_sealevel;temperature;humidity
31761;BME280;18335;51.486;7.562;2022-12-24T00:00:57;99147.09;;;9.98;100.00
31761;BME280;18335;51.486;7.562;2022-12-24T00:03:24;99139.50;;;9.94;100.00
31761;BME280;18335;51.486;7.562;2022-12-24T00:05:52;99150.56;;;10.07;100.00
31761;BME280;18335;51.486;7.562;2022-12-24T00:08:19;99150.47;;;10.00;100.00
31761;BME280;18335;51.486;7.562;2022-12-24T00:10:49;99153.84;;;10.02;100.00
31761;BME280;18335;51.486;7.562;2022-12-24T00:13:17;99170.84;;;10.05;100.00
31761;BME280;18335;51.486;7.562;2022-12-24T00:15:44;99169.16;;;10.03;100.00
31761;BME280;18335;51.486;7.562;2022-12-24T00:18:11;99179.13;;;9.96;100.00
31761;BME280;18335;51.486;7.562;2022-12-24T00:20:38;99192.13;;;9.94;100.00
31761;BME280;18335;51.486;7.562;2022-12-24T00:23:05;99184.38;;;9.98;100.00
31761;BME280;18335;51.486;7.562;2022-12-24T00:25:32;99186.34;;;9.89;100.00
31761;BME280;18335;51.486;7.562;2022-12-24T00:27:59;99201.97;;;9.95;100.00
31761;BME280;18335;51.486;7.562;2022-12-24T00:30:27;99203.38;;;9.91;100.00
31761;BME280;18335;51.486;7.562;2022-12-24T00:32:54;99202.31;;;9.92;100.00
31761;BME280;18335;51.486;7.562;2022-12-24T00:35:21;99213.59;;;10.04;100.00
31761;BME280;18335;51.486;7.562;2022-12-24T00:37:48;99212.47;;;9.98;100.00
31761;BME280;18335;51.486;7.562;2022-12-24T00:40:15;99227.34;;;9.96;100.00
31761;BME280;18335;51.486;7.562;2022-12-24T00:42:43;99217.94;;;9.98;100.00
31761;BME280;18335;51.486;7.562;2022-12-24T00:45:10;99227.63;;;10.01;100.00
31761;BME280;18335;51.486;7.562;2022-12-24T00:47:38;99214.94;;;9.93;100.00
31761;BME280;18335;51.486;7.562;2022-12-24T00:50:06;99222.47;;;9.91;100.00
31761;BME280;18335;51.486;7.562;2022-12-24T00:52:33;99226.47;;;9.95;100.00
31761;BME280;18335;51.486;7.562;2022-12-24T00:55:00;99235.72;;;9.94;100.00
31761;BME280;18335;51.486;7.562;2022-12-24T00:57:27;99227.81;;;9.99;100.00
31761;BME280;18335;51.486;7.562;2022-12-24T00:59:53;99238.44;;;9.94;100.00
31761;BME280;18335;51.486;7.562;2022-12-24T01:02:20;99245.94;;;9.92;100.00
31761;BME280;18335;51.486;7.562;2022-12-24T01:04:48;99239.47;;;9.93;100.00
31761;BME280;18335;51.486;7.562;2022-12-24T01:07:32;99238.72;;;9.99;100.00
31761;BME280;18335;51.486;7.562;2022-12-24T01:09:59;99253.56;;;9.97;100.00
31761;BME280;18335;51.486;7.562;2022-12-24T01:12:26;99254.38;;;9.97;100.00
31761;BME280;18335;51.486;7.562;2022-12-24T01:14:53;99263.69;;;9.88;100.00
31761;BME280;18335;51.486;7.562;2022-12-24T01:17:19;99267.63;;;9.86;100.00
31761;BME280;18335;51.486;7.562;2022-12-24T01:19:47;99265.09;;;9.84;100.00
31761;BME280;18335;51.486;7.562;2022-12-24T01:22:14;99268.19;;;9.81;100.00
31761;BME280;18335;51.486;7.562;2022-12-24T01:24:42;99274.13;;;9.85;100.00
31761;BME280;18335;51.486;7.562;2022-12-24T01:27:08;99276.00;;;9.84;100.00
31761;BME280;18335;51.486;7.562;2022-12-24T01:29:35;99283.59;;;9.89;100.00
31761;BME280;18335;51.486;7.562;2022-12-24T01:32:03;99293.19;;;9.85;100.00
31761;BME280;18335;51.486;7.562;2022-12-24T01:34:29;99303.72;;;9.88;100.00
31761;BME280;18335;51.486;7.562;2022-12-24T01:36:58;99308.69;;;9.84;100.00
31761;BME280;18335;51.486;7.562;2022-12-24T01:39:24;99312.25;;;9.85;100.00
31761;BME280;18335;51.486;7.562;2022-12-24T01:41:51;99309.03;;;9.81;100.00
31761;BME280;18335;51.486;7.562;2022-12-24T01:44:39;99309.91;;;9.82;100.00
31761;BME280;18335;51.486;7.562;2022-12-24T01:47:08;99308.69;;;9.84;100.00
31761;BME280;18335;51.486;7.562;2022-12-24T01:49:39;99304.09;;;9.85;100.00
31761;BME280;18335;51.486;7.562;2022-12-24T01:52:11;99316.19;;;9.82;100.00
31761;BME280;18335;51.486;7.562;2022-12-24T01:54:43;99315.34;;;9.82;100.00
31761;BME280;18335;51.486;7.562;2022-12-24T01:57:14;99319.66;;;9.76;100.00
31761;BME280;18335;51.486;7.562;2022-12-24T01:59:46;99320.38;;;9.70;100.00
31761;BME280;18335;51.486;7.562;2022-12-24T02:02:15;99309.84;;;9.67;100.00
31761;BME280;18335;51.486;7.562;2022-12-24T02:04:46;99311.59;;;9.60;100.00
31761;BME280;18335;51.486;7.562;2022-12-24T02:07:17;99314.97;;;9.62;100.00
31761;BME280;18335;51.486;7.562;2022-12-24T02:09:46;99321.63;;;9.60;100.00
31761;BME280;18335;51.486;7.562;2022-12-24T02:12:15;99325.16;;;9.68;100.00
31761;BME280;18335;51.486;7.562;2022-12-24T02:14:42;99329.66;;;9.61;100.00
31761;BME280;18335;51.486;7.562;2022-12-24T02:17:15;99331.44;;;9.69;100.00
31761;BME280;18335;51.486;7.562;2022-12-24T02:23:01;99350.34;;;9.70;100.00
31761;BME280;18335;51.486;7.562;2022-12-24T02:26:02;99355.84;;;9.62;100.00
31761;BME280;18335;51.486;7.562;2022-12-24T02:28:45;99359.78;;;9.60;100.00
31761;BME280;18335;51.486;7.562;2022-12-24T02:31:28;99356.88;;;9.61;100.00
31761;BME280;18335;51.486;7.562;2022-12-24T02:34:03;99365.34;;;9.66;100.00
31761;BME280;18335;51.486;7.562;2022-12-24T02:36:37;99366.25;;;9.59;100.00
31761;BME280;18335;51.486;7.562;2022-12-24T02:39:09;99382.34;;;9.68;100.00
31761;BME280;18335;51.486;7.562;2022-12-24T02:41:40;99385.75;;;9.70;100.00
31761;BME280;18335;51.486;7.562;2022-12-24T02:44:27;99391.06;;;9.64;100.00
31761;BME280;18335;51.486;7.562;2022-12-24T02:46:58;99399.09;;;9.57;100.00
31761;BME280;18335;51.486;7.562;2022-12-24T02:49:25;99400.63;;;9.60;100.00
31761;BME280;18335;51.486;7.562;2022-12-24T02:51:52;99403.22;;;9.53;100.00
31761;BME280;18335;51.486;7.562;2022-12-24T02:54:19;99391.34;;;9.46;100.00
31761;BME280;18335;51.486;7.562;2022-12-24T02:56:55;99406.47;;;9.49;100.00
31761;BME280;18335;51.486;7.562;2022-12-24T02:59:50;99408.56;;;9.38;100.00
31761;BME280;18335;51.486;7.562;2022-12-24T03:02:42;99410.50;;;9.30;100.00
31761;BME280;18335;51.486;7.562;2022-12-24T03:05:19;99405.09;;;9.22;100.00
31761;BME280;18335;51.486;7.562;2022-12-24T03:07:57;99401.03;;;9.18;100.00
31761;BME280;18335;51.486;7.562;2022-12-24T03:10:32;99399.00;;;9.20;100.00
31761;BME280;18335;51.486;7.562;2022-12-24T03:13:04;99401.38;;;9.15;100.00
31761;BME280;18335;51.486;7.562;2022-12-24T03:15:32;99412.44;;;9.13;100.00
31761;BME280;18335;51.486;7.562;2022-12-24T03:18:02;99414.97;;;9.15;100.00
31761;BME280;18335;51.486;7.562;2022-12-24T03:20:33;99416.72;;;9.08;100.00
31761;BME280;18335;51.486;7.562;2022-12-24T03:23:01;99421.47;;;9.06;100.00
31761;BME280;18335;51.486;7.562;2022-12-24T03:25:28;99426.41;;;9.10;100.00
31761;BME280;18335;51.486;7.562;2022-12-24T03:27:55;99417.91;;;9.13;100.00
31761;BME280;18335;51.486;7.562;2022-12-24T03:30:22;99427.56;;;9.16;100.00
31761;BME280;18335;51.486;7.562;2022-12-24T03:32:49;99428.53;;;9.23;100.00
31761;BME280;18335;51.486;7.562;2022-12-24T03:35:17;99429.78;;;9.12;100.00
31761;BME280;18335;51.486;7.562;2022-12-24T03:37:44;99426.31;;;9.26;100.00
31761;BME280;18335;51.486;7.562;2022-12-24T03:40:11;99429.91;;;9.27;100.00
31761;BME280;18335;51.486;7.562;2022-12-24T03:42:38;99433.97;;;9.31;100.00
31761;BME280;18335;51.486;7.562;2022-12-24T03:45:06;99437.34;;;9.33;100.00
31761;BME280;18335;51.486;7.562;2022-12-24T03:47:32;99440.59;;;9.36;100.00
31761;BME280;18335;51.486;7.562;2022-12-24T03:49:59;99435.28;;;9.43;100.00
31761;BME280;18335;51.486;7.562;2022-12-24T03:52:27;99435.94;;;9.45;100.00
31761;BME280;18335;51.486;7.562;2022-12-24T03:54:54;99437.28;;;9.49;100.00
31761;BME280;18335;51.486;7.562;2022-12-24T03:57:21;99435.78;;;9.47;100.00
31761;BME280;18335;51.486;7.562;2022-12-24T03:59:47;99451.22;;;9.54;100.00
31761;BME280;18335;51.486;7.562;2022-12-24T04:02:14;99438.31;;;9.48;100.00
31761;BME280;18335;51.486;7.562;2022-12-24T04:04:41;99449.84;;;9.58;100.00
31761;BME280;18335;51.486;7.562;2022-12-24T04:07:07;99453.09;;;9.54;100.00
31761;BME280;18335;51.486;7.562;2022-12-24T04:09:35;99445.97;;;9.53;100.00
31761;BME280;18335;51.486;7.562;2022-12-24T04:12:03;99449.44;;;9.69;100.00
31761;BME280;18335;51.486;7.562;2022-12-24T04:14:30;99445.50;;;9.72;100.00
31761;BME280;18335;51.486;7.562;2022-12-24T04:16:57;99448.44;;;9.62;100.00
31761;BME280;18335;51.486;7.562;2022-12-24T04:19:24;99446.06;;;9.59;100.00
31761;BME280;18335;51.486;7.562;2022-12-24T04:21:50;99455.59;;;9.63;100.00
31761;BME280;18335;51.486;7.562;2022-12-24T04:24:17;99450.19;;;9.55;100.00
31761;BME280;18335;51.486;7.562;2022-12-24T04:26:45;99450.50;;;9.60;100.00
31761;BME280;18335;51.486;7.562;2022-12-24T04:29:12;99454.94;;;9.61;100.00
31761;BME280;18335;51.486;7.562;2022-12-24T04:31:39;99453.78;;;9.56;100.00
31761;BME280;18335;51.486;7.562;2022-12-24T04:34:05;99464.41;;;9.65;100.00
31761;BME280;18335;51.486;7.562;2022-12-24T04:36:32;99462.06;;;9.62;100.00
31761;BME280;18335;51.486;7.562;2022-12-24T04:38:59;99467.34;;;9.64;100.00
31761;BME280;18335;51.486;7.562;2022-12-24T04:41:26;99480.47;;;9.60;100.00
31761;BME280;18335;51.486;7.562;2022-12-24T04:43:54;99471.22;;;9.69;100.00
31761;BME280;18335;51.486;7.562;2022-12-24T04:46:22;99477.31;;;9.71;100.00
31761;BME280;18335;51.486;7.562;2022-12-24T04:48:51;99477.03;;;9.66;100.00
31761;BME280;18335;51.486;7.562;2022-12-24T04:51:19;99487.41;;;9.63;100.00
31761;BME280;18335;51.486;7.562;2022-12-24T04:53:46;99481.13;;;9.62;100.00
31761;BME280;18335;51.486;7.562;2022-12-24T04:56:15;99475.66;;;9.70;100.00
31761;BME280;18335;51.486;7.562;2022-12-24T04:58:42;99480.91;;;9.72;100.00
31761;BME280;18335;51.486;7.562;2022-12-24T05:01:12;99475.47;;;9.72;100.00
31761;BME280;18335;51.486;7.562;2022-12-24T05:03:40;99471.16;;;9.77;100.00
31761;BME280;18335;51.486;7.562;2022-12-24T05:06:09;99486.22;;;9.65;100.00
31761;BME280;18335;51.486;7.562;2022-12-24T05:08:37;99476.81;;;9.68;100.00
31761;BME280;18335;51.486;7.562;2022-12-24T05:11:05;99484.84;;;9.69;100.00
31761;BME280;18335;51.486;7.562;2022-12-24T05:13:32;99488.06;;;9.65;100.00
31761;BME280;18335;51.486;7.562;2022-12-24T05:15:59;99492.34;;;9.67;100.00
31761;BME280;18335;51.486;7.562;2022-12-24T05:18:27;99491.50;;;9.67;100.00
31761;BME280;18335;51.486;7.562;2022-12-24T05:20:54;99492.22;;;9.61;100.00
31761;BME280;18335;51.486;7.562;2022-12-24T05:23:23;99479.25;;;9.63;100.00
31761;BME280;18335;51.486;7.562;2022-12-24T05:26:13;99494.38;;;9.65;100.00
31761;BME280;18335;51.486;7.562;2022-12-24T05:28:51;99496.94;;;9.67;100.00
31761;BME280;18335;51.486;7.562;2022-12-24T05:31:19;99502.38;;;9.67;100.00
31761;BME280;18335;51.486;7.562;2022-12-24T05:33:47;99511.06;;;9.70;100.00
31761;BME280;18335;51.486;7.562;2022-12-24T05:36:15;99499.81;;;9.65;100.00
31761;BME280;18335;51.486;7.562;2022-12-24T05:38:42;99501.88;;;9.63;100.00
31761;BME280;18335;51.486;7.562;2022-12-24T05:41:09;99502.91;;;9.62;100.00
31761;BME280;18335;51.486;7.562;2022-12-24T05:43:35;99501.88;;;9.63;100.00
31761;BME280;18335;51.486;7.562;2022-12-24T05:46:04;99508.69;;;9.67;100.00
31761;BME280;18335;51.486;7.562;2022-12-24T05:48:32;99508.69;;;9.67;100.00
31761;BME280;18335;51.486;7.562;2022-12-24T05:51:03;99511.06;;;9.70;100.00
31761;BME280;18335;51.486;7.562;2022-12-24T05:53:30;99513.44;;;9.65;100.00
31761;BME280;18335;51.486;7.562;2022-12-24T05:56:02;99517.16;;;9.72;100.00
31761;BME280;18335;51.486;7.562;2022-12-24T05:58:29;99520.91;;;9.71;100.00
31761;BME280;18335;51.486;7.562;2022-12-24T06:00:55;99519.22;;;9.70;100.00
31761;BME280;18335;51.486;7.562;2022-12-24T06:03:22;99518.19;;;9.71;100.00
31761;BME280;18335;51.486;7.562;2022-12-24T06:05:57;99514.81;;;9.69;100.00
31761;BME280;18335;51.486;7.562;2022-12-24T06:08:25;99517.16;;;9.72;100.00
31761;BME280;18335;51.486;7.562;2022-12-24T06:10:54;99523.13;;;9.76;100.00
31761;BME280;18335;51.486;7.562;2022-12-24T06:13:20;99516.81;;;9.75;100.00
31761;BME280;18335;51.486;7.562;2022-12-24T06:15:47;99523.13;;;9.76;100.00
31761;BME280;18335;51.486;7.562;2022-12-24T06:18:14;99523.63;;;9.79;100.00
31761;BME280;18335;51.486;7.562;2022-12-24T06:20:40;99526.50;;;9.78;100.00
31761;BME280;18335;51.486;7.562;2022-12-24T06:23:07;99523.97;;;9.76;100.00
31761;BME280;18335;51.486;7.562;2022-12-24T06:25:35;99526.00;;;9.74;100.00
31761;BME280;18335;51.486;7.562;2022-12-24T06:28:02;99542.69;;;9.79;100.00
31761;BME280;18335;51.486;7.562;2022-12-24T06:30:31;99541.34;;;9.75;100.00
31761;BME280;18335;51.486;7.562;2022-12-24T06:32:57;99548.00;;;9.73;100.00
31761;BME280;18335;51.486;7.562;2022-12-24T06:35:24;99547.09;;;9.80;100.00
31761;BME280;18335;51.486;7.562;2022-12-24T06:37:51;99548.81;;;9.81;100.00
31761;BME280;18335;51.486;7.562;2022-12-24T06:40:18;99569.38;;;9.84;100.00
31761;BME280;18335;51.486;7.562;2022-12-24T06:42:46;99556.44;;;9.86;100.00
31761;BME280;18335;51.486;7.562;2022-12-24T06:45:12;99562.94;;;9.77;100.00
31761;BME280;18335;51.486;7.562;2022-12-24T06:47:39;99566.00;;;9.82;100.00
31761;BME280;18335;51.486;7.562;2022-12-24T06:50:06;99568.53;;;9.83;100.00
31761;BME280;18335;51.486;7.562;2022-12-24T06:52:33;99572.06;;;9.92;100.00
31761;BME280;18335;51.486;7.562;2022-12-24T06:55:00;99569.94;;;9.79;100.00
31761;BME280;18335;51.486;7.562;2022-12-24T06:57:27;99582.50;;;9.88;100.00
31761;BME280;18335;51.486;7.562;2022-12-24T06:59:57;99580.78;;;9.87;100.00
31761;BME280;18335;51.486;7.562;2022-12-24T07:02:24;99599.19;;;9.85;100.00
31761;BME280;18335;51.486;7.562;2022-12-24T07:04:51;99591.84;;;9.94;100.00
31761;BME280;18335;51.486;7.562;2022-12-24T07:07:17;99591.69;;;9.87;100.00
31761;BME280;18335;51.486;7.562;2022-12-24T07:09:44;99600.38;;;9.83;100.00
31761;BME280;18335;51.486;7.562;2022-12-24T07:12:11;99590.53;;;9.82;100.00
31761;BME280;18335;51.486;7.562;2022-12-24T07:14:37;99596.78;;;9.90;100.00
31761;BME280;18335;51.486;7.562;2022-12-24T07:17:06;99609.41;;;9.83;100.00
31761;BME280;18335;51.486;7.562;2022-12-24T07:19:32;99605.47;;;9.86;100.00
31761;BME280;18335;51.486;7.562;2022-12-24T07:21:59;99608.88;;;9.88;100.00
31761;BME280;18335;51.486;7.562;2022-12-24T07:24:26;99613.69;;;9.78;100.00
31761;BME280;18335;51.486;7.562;2022-12-24T07:26:52;99609.75;;;9.80;100.00
31761;BME280;18335;51.486;7.562;2022-12-24T07:29:19;99616.72;;;9.91;100.00
31761;BME280;18335;51.486;7.562;2022-12-24T07:31:46;99621.69;;;9.79;100.00
31761;BME280;18335;51.486;7.562;2022-12-24T07:34:14;99616.06;;;9.81;100.00
31761;BME280;18335;51.486;7.562;2022-12-24T07:36:41;99619.84;;;9.72;100.00
31761;BME280;18335;51.486;7.562;2022-12-24T07:39:07;99616.59;;;9.76;100.00
31761;BME280;18335;51.486;7.562;2022-12-24T07:41:34;99619.31;;;9.68;100.00
31761;BME280;18335;51.486;7.562;2022-12-24T07:44:01;99622.75;;;9.70;100.00
31761;BME280;18335;51.486;7.562;2022-12-24T07:46:28;99622.25;;;9.67;100.00
31761;BME280;18335;51.486;7.562;2022-12-24T07:48:54;99628.50;;;9.75;100.00
31761;BME280;18335;51.486;7.562;2022-12-24T07:51:22;99625.13;;;9.73;100.00
31761;BME280;18335;51.486;7.562;2022-12-24T07:53:49;99633.28;;;9.73;100.00
31761;BME280;18335;51.486;7.562;2022-12-24T07:56:16;99633.28;;;9.73;100.00
31761;BME280;18335;51.486;7.562;2022-12-24T07:58:42;99643.16;;;9.82;100.00
31761;BME280;18335;51.486;7.562;2022-12-24T08:01:09;99634.28;;;9.80;100.00
31761;BME280;18335;51.486;7.562;2022-12-24T08:03:36;99636.69;;;9.75;100.00
31761;BME280;18335;51.486;7.562;2022-12-24T08:06:04;99656.41;;;9.77;100.00
31761;BME280;18335;51.486;7.562;2022-12-24T08:08:32;99657.94;;;9.80;100.00
31761;BME280;18335;51.486;7.562;2022-12-24T08:11:00;99656.06;;;9.80;100.00
31761;BME280;18335;51.486;7.562;2022-12-24T08:13:27;99657.44;;;9.84;100.00
31761;BME280;18335;51.486;7.562;2022-12-24T08:15:54;99667.97;;;9.87;100.00
31761;BME280;18335;51.486;7.562;2022-12-24T08:18:20;99675.50;;;9.77;100.00
31761;BME280;18335;51.486;7.562;2022-12-24T08:20:47;99673.75;;;9.92;100.00
31761;BME280;18335;51.486;7.562;2022-12-24T08:23:14;99676.97;;;9.96;100.00
31761;BME280;18335;51.486;7.562;2022-12-24T08:25:44;99688.06;;;9.94;100.00
31761;BME280;18335;51.486;7.562;2022-12-24T08:28:11;99685.34;;;9.94;100.00
31761;BME280;18335;51.486;7.562;2022-12-24T08:30:38;99690.44;;;9.89;100.00
31761;BME280;18335;51.486;7.562;2022-12-24T08:33:05;99697.91;;;9.95;100.00
31761;BME280;18335;51.486;7.562;2022-12-24T08:35:31;99703.88;;;9.99;100.00
31761;BME280;18335;51.486;7.562;2022-12-24T08:37:59;99709.88;;;9.94;100.00
31761;BME280;18335;51.486;7.562;2022-12-24T08:40:26;99708.97;;;10.02;100.00
31761;BME280;18335;51.486;7.562;2022-12-24T08:42:54;99714.78;;;9.99;100.00
31761;BME280;18335;51.486;7.562;2022-12-24T08:45:21;99713.41;;;9.95;100.00
31761;BME280;18335;51.486;7.562;2022-12-24T08:47:47;99723.47;;;10.02;100.00
31761;BME280;18335;51.486;7.562;2022-12-24T08:50:14;99728.44;;;9.91;100.00
31761;BME280;18335;51.486;7.562;2022-12-24T08:52:41;99715.63;;;9.99;100.00
31761;BME280;18335;51.486;7.562;2022-12-24T08:55:08;99720.06;;;9.92;100.00
31761;BME280;18335;51.486;7.562;2022-12-24T08:57:35;99711.03;;;10.00;100.00
31761;BME280;18335;51.486;7.562;2022-12-24T09:00:05;99728.56;;;9.97;100.00
31761;BME280;18335;51.486;7.562;2022-12-24T09:02:33;99726.19;;;10.02;100.00
31761;BME280;18335;51.486;7.562;2022-12-24T09:04:59;99737.44;;;9.99;100.00
31761;BME280;18335;51.486;7.562;2022-12-24T09:07:26;99744.22;;;10.03;100.00
31761;BME280;18335;51.486;7.562;2022-12-24T09:09:53;99735.03;;;10.05;100.00
31761;BME280;18335;51.486;7.562;2022-12-24T09:12:20;99741.19;;;10.15;100.00
31761;BME280;18335;51.486;7.562;2022-12-24T09:14:47;99756.50;;;10.16;100.00
31761;BME280;18335;51.486;7.562;2022-12-24T09:17:17;99753.78;;;10.16;100.00
31761;BME280;18335;51.486;7.562;2022-12-24T09:19:44;99756.16;;;10.11;100.00
31761;BME280;18335;51.486;7.562;2022-12-24T09:22:10;99766.88;;;10.20;100.00
31761;BME280;18335;51.486;7.562;2022-12-24T09:24:37;99774.88;;;10.22;100.00
31761;BME280;18335;51.486;7.562;2022-12-24T09:27:04;99777.94;;;10.11;100.00
31761;BME280;18335;51.486;7.562;2022-12-24T09:29:31;99774.88;;;10.22;100.00
31761;BME280;18335;51.486;7.562;2022-12-24T09:31:58;99772.69;;;10.17;100.00
31761;BME280;18335;51.486;7.562;2022-12-24T09:34:26;99771.34;;;10.21;100.00
31761;BME280;18335;51.486;7.562;2022-12-24T09:36:53;99777.59;;;10.22;100.00
31761;BME280;18335;51.486;7.562;2022-12-24T09:39:20;99797.38;;;10.24;100.00
31761;BME280;18335;51.486;7.562;2022-12-24T09:41:52;99795.66;;;10.31;100.00
31761;BME280;18335;51.486;7.562;2022-12-24T09:44:32;99796.66;;;10.38;100.00
31761;BME280;18335;51.486;7.562;2022-12-24T09:47:09;99796.66;;;10.38;100.00
31761;BME280;18335;51.486;7.562;2022-12-24T09:49:41;99803.44;;;10.50;100.00
31761;BME280;18335;51.486;7.562;2022-12-24T09:52:11;99804.47;;;10.49;100.00
31761;BME280;18335;51.486;7.562;2022-12-24T09:54:41;99808.50;;;10.61;100.00
31761;BME280;18335;51.486;7.562;2022-12-24T09:57:14;99815.03;;;10.52;100.00
31761;BME280;18335;51.486;7.562;2022-12-24T09:59:44;99801.91;;;10.47;100.00
31761;BME280;18335;51.486;7.562;2022-12-24T10:02:15;99814.66;;;10.55;100.00
31761;BME280;18335;51.486;7.562;2022-12-24T10:04:45;99827.47;;;10.46;100.00
31761;BME280;18335;51.486;7.562;2022-12-24T10:07:25;99822.38;;;10.43;100.00
31761;BME280;18335;51.486;7.562;2022-12-24T10:10:00;99824.25;;;10.51;100.00
31761;BME280;18335;51.486;7.562;2022-12-24T10:12:33;99824.25;;;10.43;100.00
31761;BME280;18335;51.486;7.562;2022-12-24T10:15:09;99825.94;;;10.52;100.00
31761;BME280;18335;51.486;7.562;2022-12-24T10:17:50;99825.44;;;10.48;100.00
31761;BME280;18335;51.486;7.562;2022-12-24T10:20:30;99824.25;;;10.51;100.00
31761;BME280;18335;51.486;7.562;2022-12-24T10:23:02;99824.88;;;10.61;100.00
31761;BME280;18335;51.486;7.562;2022-12-24T10:25:35;99823.31;;;10.67;100.00
31761;BME280;18335;51.486;7.562;2022-12-24T10:28:11;99819.00;;;10.80;100.00
31761;BME280;18335;51.486;7.562;2022-12-24T10:30:40;99830.56;;;10.90;100.00
31761;BME280;18335;51.486;7.562;2022-12-24T10:33:14;99824.56;;;10.95;100.00
31761;BME280;18335;51.486;7.562;2022-12-24T10:35:46;99828.88;;;10.89;100.00
31761;BME280;18335;51.486;7.562;2022-12-24T10:38:15;99829.38;;;10.85;100.00
31761;BME280;18335;51.486;7.562;2022-12-24T10:40:43;99838.88;;;10.97;100.00
31761;BME280;18335;51.486;7.562;2022-12-24T10:43:14;99829.19;;;10.94;100.00
31761;BME280;18335;51.486;7.562;2022-12-24T10:45:45;99830.09;;;10.87;100.00
31761;BME280;18335;51.486;7.562;2022-12-24T10:48:18;99828.19;;;10.87;100.00
31761;BME280;18335;51.486;7.562;2022-12-24T10:50:53;99828.56;;;10.76;100.00
31761;BME280;18335;51.486;7.562;2022-12-24T10:53:31;99825.22;;;10.97;100.00
31761;BME280;18335;51.486;7.562;2022-12-24T10:56:04;99820.50;;;10.91;100.00
31761;BME280;18335;51.486;7.562;2022-12-24T10:58:31;99827.81;;;10.98;100.00
31761;BME280;18335;51.486;7.562;2022-12-24T11:00:59;99823.00;;;11.00;100.00
31761;BME280;18335;51.486;7.562;2022-12-24T11:03:29;99820.28;;;11.00;100.00
31761;BME280;18335;51.486;7.562;2022-12-24T11:06:06;99815.72;;;10.93;100.00
31761;BME280;18335;51.486;7.562;2022-12-24T11:08:34;99808.97;;;10.73;100.00
31761;BME280;18335;51.486;7.562;2022-12-24T11:11:03;99811.13;;;10.85;100.00
31761;BME280;18335;51.486;7.562;2022-12-24T11:13:32;99821.00;;;10.94;100.00
31761;BME280;18335;51.486;7.562;2022-12-24T11:16:03;99815.84;;;10.99;100.00
31761;BME280;18335;51.486;7.562;2022-12-24T11:18:32;99816.59;;;10.85;100.00
31761;BME280;18335;51.486;7.562;2022-12-24T11:21:02;99818.00;;;10.73;100.00
31761;BME280;18335;51.486;7.562;2022-12-24T11:23:29;99814.94;;;10.76;100.00
31761;BME280;18335;51.486;7.562;2022-12-24T11:25:57;99813.25;;;10.67;100.00
31761;BME280;18335;51.486;7.562;2022-12-24T11:28:25;99814.47;;;10.65;100.00
31761;BME280;18335;51.486;7.562;2022-12-24T11:30:59;99809.16;;;10.71;100.00
31761;BME280;18335;51.486;7.562;2022-12-24T11:33:27;99813.75;;;10.71;100.00
31761;BME280;18335;51.486;7.562;2022-12-24T11:35:58;99819.38;;;10.77;100.00
31761;BME280;18335;51.486;7.562;2022-12-24T11:38:28;99812.56;;;10.73;100.00
31761;BME280;18335;51.486;7.562;2022-12-24T11:40:59;99815.69;;;10.62;100.00
31761;BME280;18335;51.486;7.562;2022-12-24T11:43:27;99811.94;;;10.55;100.00
31761;BME280;18335;51.486;7.562;2022-12-24T11:46:14;99811.06;;;10.63;100.00
31761;BME280;18335;51.486;7.562;2022-12-24T11:48:42;99800.66;;;10.66;100.00
31761;BME280;18335;51.486;7.562;2022-12-24T11:51:23;99814.47;;;11.03;100.00
31761;BME280;18335;51.486;7.562;2022-12-24T11:53:57;99814.63;;;10.71;100.00
31761;BME280;18335;51.486;7.562;2022-12-24T11:56:32;99821.00;;;10.94;100.00
31761;BME280;18335;51.486;7.562;2022-12-24T11:59:08;99812.91;;;10.70;100.00
31761;BME280;18335;51.486;7.562;2022-12-24T12:01:41;99816.69;;;10.69;100.00
31761;BME280;18335;51.486;7.562;2022-12-24T12:04:14;99823.31;;;10.67;100.00
31761;BME280;18335;51.486;7.562;2022-12-24T12:06:45;99824.81;;;10.77;100.00
31761;BME280;18335;51.486;7.562;2022-12-24T12:09:19;99829.22;;;10.86;100.00
31761;BME280;18335;51.486;7.562;2022-12-24T12:11:50;99826.81;;;10.91;100.00
31761;BME280;18335;51.486;7.562;2022-12-24T12:14:20;99828.88;;;10.89;100.00
31761;BME280;18335;51.486;7.562;2022-12-24T12:16:54;99832.25;;;10.91;100.00
31761;BME280;18335;51.486;7.562;2022-12-24T12:19:30;99843.84;;;10.93;100.00
31761;BME280;18335;51.486;7.562;2022-12-24T12:21:59;99845.25;;;10.89;100.00
31761;BME280;18335;51.486;7.562;2022-12-24T12:24:35;99842.38;;;10.83;100.00
31761;BME280;18335;51.486;7.562;2022-12-24T12:27:12;99833.31;;;10.82;100.00
31761;BME280;18335;51.486;7.562;2022-12-24T12:29:44;99836.44;;;10.71;100.00
31761;BME280;18335;51.486;7.562;2022-12-24T12:32:23;99843.81;;;10.63;100.00
31761;BME280;18335;51.486;7.562;2022-12-24T12:34:58;99842.41;;;10.75;100.00
31761;BME280;18335;51.486;7.562;2022-12-24T12:37:32;99848.69;;;10.83;100.00
31761;BME280;18335;51.486;7.562;2022-12-24T12:40:05;99843.22;;;10.75;100.00
31761;BME280;18335;51.486;7.562;2022-12-24T12:42:38;99855.88;;;10.76;100.00
31761;BME280;18335;51.486;7.562;2022-12-24T12:45:22;99856.91;;;10.67;100.00
31761;BME280;18335;51.486;7.562;2022-12-24T12:48:07;99854.19;;;10.67;100.00
31761;BME280;18335;51.486;7.562;2022-12-24T12:50:41;99846.38;;;10.56;100.00
31761;BME280;18335;51.486;7.562;2022-12-24T12:53:27;99856.91;;;10.67;100.00
31761;BME280;18335;51.486;7.562;2022-12-24T12:56:03;99857.94;;;10.74;100.00
31761;BME280;18335;51.486;7.562;2022-12-24T12:58:35;99863.06;;;10.69;100.00
31761;BME280;18335;51.486;7.562;2022-12-24T13:01:08;99868.13;;;10.80;100.00
31761;BME280;18335;51.486;7.562;2022-12-24T13:06:56;99879.75;;;10.74;100.00
31761;BME280;18335;51.486;7.562;2022-12-24T13:09:53;99883.50;;;10.73;100.00
31761;BME280;18335;51.486;7.562;2022-12-24T13:12:43;99871.22;;;10.77;100.00
31761;BME280;18335;51.486;7.562;2022-12-24T13:15:38;99875.81;;;10.77;100.00
31761;BME280;18335;51.486;7.562;2022-12-24T13:18:28;99883.53;;;11.12;100.00